createdAt,value
2023-02-12T00:01:16.230Z,10.31
2023-02-12T00:03:46.529Z,10.58
2023-02-12T00:06:19.098Z,10.15
2023-02-12T00:08:52.014Z,10.16
2023-02-12T00:11:24.890Z,10.87
2023-02-12T00:14:03.559Z,10.59
2023-02-12T00:16:31.416Z,10.70
2023-02-12T00:18:59.948Z,10.44
2023-02-12T00:21:31.875Z,10.66
2023-02-12T00:23:59.752Z,10.79
2023-02-12T00:26:27.667Z,10.29
2023-02-12T00:28:55.926Z,10.54
2023-02-12T00:31:28.732Z,10.76
2023-02-12T00:33:56.811Z,10.73
2023-02-12T00:36:30.003Z,10.66
2023-02-12T00:39:01.352Z,10.74
2023-02-12T00:41:29.447Z,10.54
2023-02-12T00:44:02.455Z,10.57
2023-02-12T00:46:30.309Z,10.55
2023-02-12T00:49:00.311Z,10.74
2023-02-12T00:51:35.272Z,10.81
2023-02-12T00:54:07.419Z,10.46
2023-02-12T00:56:35.216Z,10.92
2023-02-12T00:59:02.966Z,10.65
2023-02-12T01:01:36.608Z,10.78
2023-02-12T01:04:04.538Z,10.83
2023-02-12T01:06:34.083Z,11.02
2023-02-12T01:09:02.001Z,10.96
2023-02-12T01:11:31.176Z,10.90
2023-02-12T01:14:00.101Z,10.52
2023-02-12T01:16:28.593Z,10.70
2023-02-12T01:18:56.956Z,10.45
2023-02-12T01:21:32.747Z,10.71
2023-02-12T01:24:08.466Z,10.72
2023-02-12T01:26:38.102Z,10.94
2023-02-12T01:29:07.474Z,10.92
2023-02-12T01:31:38.383Z,10.94
2023-02-12T01:34:07.670Z,10.88
2023-02-12T01:36:37.531Z,10.93
2023-02-12T01:39:06.578Z,10.95
2023-02-12T01:41:37.364Z,10.75
2023-02-12T01:44:17.911Z,9.73
2023-02-12T01:46:46.778Z,10.78
2023-02-12T01:49:18.601Z,10.78
2023-02-12T01:51:47.577Z,10.28
2023-02-12T01:54:22.269Z,10.52
2023-02-12T01:56:53.282Z,10.09
2023-02-12T01:59:28.158Z,10.22
2023-02-12T02:01:56.442Z,10.47
2023-02-12T02:04:27.170Z,10.54
2023-02-12T02:06:58.493Z,10.50
2023-02-12T02:09:27.257Z,9.99
2023-02-12T02:12:15.794Z,10.08
2023-02-12T02:14:45.381Z,10.26
2023-02-12T02:17:32.000Z,10.21
2023-02-12T02:20:46.756Z,9.91
2023-02-12T02:23:32.289Z,10.22
2023-02-12T02:26:33.947Z,10.23
2023-02-12T02:29:22.201Z,10.15
2023-02-12T02:31:54.929Z,9.27
2023-02-12T02:34:27.500Z,8.91
2023-02-12T02:37:02.912Z,8.83
2023-02-12T02:39:38.783Z,9.50
2023-02-12T02:42:11.356Z,9.23
2023-02-12T02:44:47.795Z,8.51
2023-02-12T02:47:22.936Z,8.43
2023-02-12T02:50:01.963Z,9.39
2023-02-12T02:52:33.635Z,9.55
2023-02-12T02:55:05.132Z,9.24
2023-02-12T02:57:42.305Z,9.53
2023-02-12T03:00:15.432Z,9.39
2023-02-12T03:02:47.316Z,9.28
2023-02-12T03:05:21.429Z,9.38
2023-02-12T03:07:52.414Z,9.85
2023-02-12T03:10:22.925Z,9.83
2023-02-12T03:12:54.368Z,9.53
2023-02-12T03:15:27.833Z,9.33
2023-02-12T03:18:00.657Z,8.97
2023-02-12T03:20:30.778Z,9.34
2023-02-12T03:23:05.069Z,9.28
2023-02-12T03:25:37.063Z,9.48
2023-02-12T03:28:08.296Z,9.52
2023-02-12T03:30:45.284Z,9.12
2023-02-12T03:33:32.100Z,9.87
2023-02-12T03:36:05.371Z,9.92
2023-02-12T03:38:37.969Z,9.91
2023-02-12T03:41:12.960Z,9.80
2023-02-12T03:43:50.303Z,9.54
2023-02-12T03:46:22.347Z,9.48
2023-02-12T03:49:00.558Z,9.77
2023-02-12T03:51:34.611Z,9.68
2023-02-12T03:54:05.072Z,10.12
2023-02-12T03:56:43.568Z,10.26
2023-02-12T03:59:25.376Z,9.45
2023-02-12T04:01:54.831Z,9.68
2023-02-12T04:04:27.843Z,9.65
2023-02-12T04:06:56.205Z,10.15
2023-02-12T04:09:26.112Z,10.36
2023-02-12T04:12:04.024Z,10.25
2023-02-12T04:14:39.837Z,10.55
2023-02-12T04:17:13.138Z,10.39
2023-02-12T04:19:51.297Z,10.39
2023-02-12T04:22:31.198Z,10.23
2023-02-12T04:25:10.522Z,10.43
2023-02-12T04:27:46.346Z,10.27
2023-02-12T04:30:18.457Z,10.38
2023-02-12T04:32:49.785Z,10.23
2023-02-12T04:35:23.262Z,10.58
2023-02-12T04:37:54.041Z,10.31
2023-02-12T04:40:28.125Z,10.40
2023-02-12T04:43:02.264Z,10.41
2023-02-12T04:45:34.609Z,10.30
2023-02-12T04:48:09.956Z,10.13
2023-02-12T04:50:47.519Z,10.27
2023-02-12T04:53:18.512Z,9.85
2023-02-12T04:55:47.426Z,10.50
2023-02-12T04:58:18.294Z,10.52
2023-02-12T05:00:46.358Z,10.42
2023-02-12T05:03:14.189Z,9.73
2023-02-12T05:05:43.394Z,10.22
2023-02-12T05:08:15.940Z,10.44
2023-02-12T05:10:43.760Z,10.63
2023-02-12T05:13:14.339Z,10.04
2023-02-12T05:15:42.320Z,10.69
2023-02-12T05:18:11.428Z,10.50
2023-02-12T05:20:39.224Z,10.65
2023-02-12T05:23:08.434Z,10.65
2023-02-12T05:25:39.092Z,10.63
2023-02-12T05:28:07.267Z,10.23
2023-02-12T05:30:37.987Z,10.46
2023-02-12T05:33:05.874Z,10.28
2023-02-12T05:35:35.815Z,10.06
2023-02-12T05:38:06.704Z,9.76
2023-02-12T05:40:40.292Z,10.29
2023-02-12T05:43:08.140Z,10.43
2023-02-12T05:45:38.377Z,10.39
2023-02-12T05:48:06.301Z,10.62
2023-02-12T05:50:34.233Z,10.46
2023-02-12T05:53:09.983Z,10.41
2023-02-12T05:55:42.122Z,10.69
2023-02-12T05:58:10.359Z,10.62
2023-02-12T06:00:40.580Z,10.68
2023-02-12T06:03:08.354Z,10.61
2023-02-12T06:05:38.740Z,10.57
2023-02-12T06:08:06.630Z,10.57
2023-02-12T06:10:34.402Z,10.55
2023-02-12T06:13:03.566Z,10.27
2023-02-12T06:15:31.638Z,10.16
2023-02-12T06:18:02.248Z,10.44
2023-02-12T06:20:32.245Z,10.35
2023-02-12T06:23:00.032Z,10.49
2023-02-12T06:25:28.094Z,10.53
2023-02-12T06:27:58.543Z,10.55
2023-02-12T06:30:38.814Z,10.67
2023-02-12T06:33:06.552Z,10.76
2023-02-12T06:35:38.607Z,10.55
2023-02-12T06:38:16.637Z,10.66
2023-02-12T06:40:44.515Z,10.59
2023-02-12T06:43:12.382Z,9.77
2023-02-12T06:45:41.593Z,10.16
2023-02-12T06:48:09.408Z,10.07
2023-02-12T06:50:39.904Z,10.01
2023-02-12T06:53:10.766Z,10.16
2023-02-12T06:55:40.932Z,10.09
2023-02-12T06:58:17.818Z,10.41
2023-02-12T07:00:47.372Z,8.78
2023-02-12T07:03:15.263Z,10.74
2023-02-12T07:05:44.957Z,10.68
2023-02-12T07:08:15.309Z,10.72
2023-02-12T07:10:49.479Z,10.53
2023-02-12T07:13:17.400Z,10.47
2023-02-12T07:15:46.650Z,10.03
2023-02-12T07:18:14.548Z,9.99
2023-02-12T07:20:47.609Z,10.40
2023-02-12T07:23:16.427Z,10.33
2023-02-12T07:25:46.836Z,10.74
2023-02-12T07:28:20.068Z,10.72
2023-02-12T07:30:50.443Z,10.55
2023-02-12T07:33:20.763Z,10.21
2023-02-12T07:35:50.717Z,10.10
2023-02-12T07:38:21.081Z,9.82
2023-02-12T07:40:51.067Z,9.64
2023-02-12T07:43:30.933Z,9.57
2023-02-12T07:46:10.592Z,9.53
2023-02-12T07:48:39.663Z,9.43
2023-02-12T07:51:09.163Z,9.47
2023-02-12T07:53:37.832Z,9.67
2023-02-12T07:56:07.267Z,9.70
2023-02-12T07:58:37.554Z,9.92
2023-02-12T08:01:18.670Z,10.13
2023-02-12T08:03:50.882Z,10.36
2023-02-12T08:06:20.381Z,10.52
2023-02-12T08:08:48.666Z,10.41
2023-02-12T08:11:16.676Z,10.49
2023-02-12T08:13:47.688Z,10.70
2023-02-12T08:16:18.479Z,10.99
2023-02-12T08:18:49.731Z,10.97
2023-02-12T08:21:19.609Z,11.22
2023-02-12T08:23:49.941Z,11.18
2023-02-12T08:26:21.845Z,11.40
2023-02-12T08:28:52.110Z,11.10
2023-02-12T08:31:23.454Z,11.51
2023-02-12T08:33:53.002Z,11.29
2023-02-12T08:36:23.221Z,11.03
2023-02-12T08:38:54.074Z,11.31
2023-02-12T08:41:23.396Z,10.83
2023-02-12T08:44:23.003Z,10.66
2023-02-12T08:46:46.774Z,10.69
2023-02-12T08:49:17.629Z,10.86
2023-02-12T08:51:50.082Z,10.60
2023-02-12T08:54:21.238Z,10.62
2023-02-12T08:56:49.089Z,10.43
2023-02-12T08:59:17.701Z,10.42
2023-02-12T09:01:48.231Z,10.60
2023-02-12T09:04:24.177Z,10.99
2023-02-12T09:06:53.239Z,10.89
2023-02-12T09:09:24.297Z,10.56
2023-02-12T09:11:52.839Z,10.51
2023-02-12T09:14:24.309Z,10.61
2023-02-12T09:16:54.670Z,10.42
2023-02-12T09:19:22.764Z,10.46
2023-02-12T09:21:55.516Z,10.64
2023-02-12T09:24:24.200Z,10.26
2023-02-12T09:27:16.963Z,10.32
2023-02-12T09:29:47.971Z,10.05
2023-02-12T09:32:17.373Z,9.67
2023-02-12T09:34:47.878Z,9.55
2023-02-12T09:37:16.706Z,8.91
2023-02-12T09:39:45.018Z,9.55
2023-02-12T09:42:36.535Z,9.71
2023-02-12T09:45:08.747Z,10.11
2023-02-12T09:47:47.145Z,10.11
2023-02-12T09:50:27.679Z,10.10
2023-02-12T09:52:57.923Z,10.09
2023-02-12T09:55:28.796Z,10.37
2023-02-12T09:57:56.808Z,10.63
2023-02-12T10:00:31.785Z,10.41
2023-02-12T10:03:08.796Z,9.96
2023-02-12T10:05:42.608Z,9.57
2023-02-12T10:08:33.418Z,9.61
2023-02-12T10:11:18.963Z,9.73
2023-02-12T10:13:54.673Z,9.36
2023-02-12T10:16:34.683Z,9.50
2023-02-12T10:19:21.865Z,9.18
2023-02-12T10:22:00.446Z,9.27
2023-02-12T10:24:43.995Z,8.85
2023-02-12T10:27:18.124Z,8.99
2023-02-12T10:29:47.973Z,9.59
2023-02-12T10:32:26.189Z,9.87
2023-02-12T10:34:57.450Z,9.69
2023-02-12T10:37:30.306Z,9.96
2023-02-12T10:40:05.642Z,9.94
2023-02-12T10:42:42.433Z,10.13
2023-02-12T10:45:21.445Z,10.13
2023-02-12T10:47:55.055Z,10.07
2023-02-12T10:50:45.004Z,9.70
2023-02-12T10:53:22.499Z,9.65
2023-02-12T10:55:50.510Z,9.93
2023-02-12T10:58:21.804Z,9.44
2023-02-12T11:01:00.342Z,9.31
2023-02-12T11:03:30.668Z,9.92
2023-02-12T11:06:14.414Z,9.83
2023-02-12T11:08:42.949Z,9.94
2023-02-12T11:11:18.475Z,9.81
2023-02-12T11:13:49.010Z,9.90
2023-02-12T11:16:28.140Z,9.93
2023-02-12T11:19:00.030Z,10.03
2023-02-12T11:21:32.555Z,10.15
2023-02-12T11:24:22.495Z,9.94
2023-02-12T11:26:50.921Z,9.62
2023-02-12T11:29:21.086Z,9.50
2023-02-12T11:32:02.547Z,10.01
2023-02-12T11:34:31.950Z,10.21
2023-02-12T11:37:14.240Z,10.22
2023-02-12T11:39:42.212Z,9.93
2023-02-12T11:42:17.555Z,9.79
2023-02-12T11:44:56.517Z,9.77
2023-02-12T11:47:26.904Z,9.37
2023-02-12T11:50:00.483Z,9.22
2023-02-12T11:52:32.754Z,9.42
2023-02-12T11:55:03.261Z,9.49
2023-02-12T11:57:49.352Z,9.24
2023-02-12T12:00:19.122Z,9.28
2023-02-12T12:02:50.809Z,9.82
2023-02-12T12:05:21.202Z,10.24
2023-02-12T12:07:54.671Z,9.28
2023-02-12T12:10:31.370Z,9.52
2023-02-12T12:13:08.519Z,9.57
2023-02-12T12:15:57.876Z,9.29
2023-02-12T12:18:48.036Z,9.65
2023-02-12T12:21:21.990Z,9.54
2023-02-12T12:23:54.325Z,9.63
2023-02-12T12:26:25.344Z,9.81
2023-02-12T12:28:58.718Z,9.46
2023-02-12T12:31:30.376Z,9.54
2023-02-12T12:34:03.494Z,10.19
2023-02-12T12:36:51.171Z,9.57
2023-02-12T12:39:30.857Z,9.65
2023-02-12T12:42:30.957Z,9.53
2023-02-12T12:45:08.747Z,9.62
2023-02-12T12:47:45.311Z,9.86
2023-02-12T12:50:33.037Z,9.99
2023-02-12T12:53:10.768Z,10.45
2023-02-12T12:56:17.084Z,10.25
2023-02-12T12:58:55.581Z,10.30
2023-02-12T13:01:42.173Z,10.31
2023-02-12T13:04:31.452Z,11.04
2023-02-12T13:07:13.612Z,10.25
2023-02-12T13:10:02.540Z,10.62
2023-02-12T13:13:01.983Z,10.73
2023-02-12T13:15:35.514Z,10.20
2023-02-12T13:18:14.795Z,10.77
2023-02-12T13:20:48.754Z,10.84
2023-02-12T13:23:24.547Z,11.14
2023-02-12T13:26:06.481Z,11.34
2023-02-12T13:28:40.971Z,11.12
2023-02-12T13:31:32.098Z,11.32
2023-02-12T13:34:05.324Z,11.32
2023-02-12T13:36:38.140Z,11.26
2023-02-12T13:39:09.028Z,11.61
2023-02-12T13:41:37.391Z,11.69
2023-02-12T13:44:14.917Z,11.90
2023-02-12T13:46:55.704Z,12.24
2023-02-12T13:49:30.597Z,12.51
2023-02-12T13:52:04.821Z,12.48
2023-02-12T13:54:48.683Z,12.66
2023-02-12T13:57:20.578Z,12.93
2023-02-12T13:59:55.831Z,12.81
2023-02-12T14:02:43.996Z,12.29
2023-02-12T14:05:24.495Z,12.50
2023-02-12T14:07:53.847Z,12.69
2023-02-12T14:10:27.878Z,12.25
2023-02-12T14:12:58.884Z,12.27
2023-02-12T14:15:34.812Z,11.88
2023-02-12T14:18:22.163Z,11.87
2023-02-12T14:21:09.708Z,12.27
2023-02-12T14:23:37.659Z,12.20
2023-02-12T14:26:09.120Z,12.20
2023-02-12T14:28:49.156Z,12.35
2023-02-12T14:31:39.633Z,12.36
2023-02-12T14:34:48.222Z,12.04
2023-02-12T14:37:38.187Z,12.04
2023-02-12T14:40:31.761Z,12.26
2023-02-12T14:43:15.880Z,12.03
2023-02-12T14:45:43.741Z,12.03
2023-02-12T14:48:45.124Z,12.42
2023-02-12T14:51:17.640Z,11.94
2023-02-12T14:53:47.870Z,11.95
2023-02-12T14:56:22.766Z,12.23
2023-02-12T14:58:51.334Z,12.23
2023-02-12T15:01:35.168Z,11.94
2023-02-12T15:04:13.326Z,12.19
2023-02-12T15:06:44.911Z,12.28
2023-02-12T15:09:23.263Z,12.19
2023-02-12T15:11:54.270Z,12.18
2023-02-12T15:14:25.454Z,12.12
2023-02-12T15:16:59.875Z,11.81
2023-02-12T15:19:42.136Z,11.84
2023-02-12T15:22:24.655Z,11.89
2023-02-12T15:24:52.823Z,11.96
2023-02-12T15:27:21.808Z,11.75
2023-02-12T15:29:52.514Z,12.18
2023-02-12T15:32:27.139Z,12.11
2023-02-12T15:34:59.121Z,11.97
2023-02-12T15:40:18.101Z,11.24
2023-02-12T15:42:54.369Z,11.17
2023-02-12T15:45:26.918Z,11.42
2023-02-12T15:48:03.756Z,11.32
2023-02-12T15:50:34.689Z,11.16
2023-02-12T15:53:04.600Z,11.30
2023-02-12T15:55:40.104Z,11.30
2023-02-12T15:58:25.992Z,11.22
2023-02-12T16:00:57.511Z,11.18
2023-02-12T16:03:27.302Z,11.18
2023-02-12T16:06:01.802Z,11.39
2023-02-12T16:08:30.674Z,11.44
2023-02-12T16:11:13.719Z,11.63
2023-02-12T16:13:44.985Z,11.48
2023-02-12T16:16:26.068Z,11.33
2023-02-12T16:19:20.459Z,11.41
2023-02-12T16:21:52.232Z,11.37
2023-02-12T16:24:27.948Z,11.07
2023-02-12T16:26:56.366Z,11.26
2023-02-12T16:29:27.146Z,11.11
2023-02-12T16:31:57.994Z,11.07
2023-02-12T16:34:37.514Z,11.26
2023-02-12T16:37:43.588Z,11.31
2023-02-12T16:40:26.197Z,11.00
2023-02-12T16:43:03.282Z,11.07
2023-02-12T16:45:38.626Z,11.05
2023-02-12T16:48:25.555Z,10.94
2023-02-12T16:50:58.996Z,11.07
2023-02-12T16:53:43.129Z,11.01
2023-02-12T16:59:03.991Z,10.32
2023-02-12T17:01:34.181Z,10.60
2023-02-12T17:04:08.705Z,10.85
2023-02-12T17:06:36.619Z,10.88
2023-02-12T17:09:07.988Z,10.83
2023-02-12T17:11:35.861Z,10.79
2023-02-12T17:14:06.384Z,10.72
2023-02-12T17:16:36.103Z,10.57
2023-02-12T17:19:06.945Z,11.03
2023-02-12T17:21:38.317Z,11.03
2023-02-12T17:24:10.178Z,10.98
2023-02-12T17:26:40.674Z,10.88
2023-02-12T17:29:08.636Z,10.61
2023-02-12T17:31:37.604Z,10.53
2023-02-12T17:34:07.700Z,10.60
2023-02-12T17:36:41.549Z,10.91
2023-02-12T17:39:15.555Z,10.60
2023-02-12T17:41:45.153Z,10.74
2023-02-12T17:44:18.991Z,10.47
2023-02-12T17:46:46.870Z,10.78
2023-02-12T17:49:19.731Z,10.74
2023-02-12T17:51:48.330Z,11.05
2023-02-12T17:54:21.065Z,11.15
2023-02-12T17:56:50.493Z,11.04
2023-02-12T17:59:18.303Z,11.07
2023-02-12T18:01:55.114Z,11.16
2023-02-12T18:04:22.978Z,11.17
2023-02-12T18:06:52.315Z,11.16
2023-02-12T18:09:22.636Z,11.04
2023-02-12T18:11:53.427Z,10.89
2023-02-12T18:14:23.747Z,11.02
2023-02-12T18:16:58.243Z,10.96
2023-02-12T18:19:26.708Z,10.40
2023-02-12T18:21:56.739Z,10.74
2023-02-12T18:24:31.740Z,10.50
2023-02-12T18:27:02.220Z,10.31
2023-02-12T18:29:33.143Z,10.59
2023-02-12T18:32:03.584Z,10.68
2023-02-12T18:34:33.337Z,10.65
2023-02-12T18:37:01.445Z,10.40
2023-02-12T18:39:33.850Z,10.26
2023-02-12T18:42:02.416Z,10.54
2023-02-12T18:44:37.261Z,10.47
2023-02-12T18:47:12.862Z,10.52
2023-02-12T18:49:40.677Z,10.52
2023-02-12T18:52:08.696Z,10.51
2023-02-12T18:54:38.889Z,10.26
2023-02-12T18:57:06.664Z,10.48
2023-02-12T18:59:38.394Z,10.43
2023-02-12T19:02:15.704Z,10.16
2023-02-12T19:04:46.450Z,9.51
2023-02-12T19:07:16.988Z,10.01
2023-02-12T19:09:50.051Z,10.14
2023-02-12T19:12:20.570Z,10.14
2023-02-12T19:14:48.418Z,10.01
2023-02-12T19:17:16.245Z,10.00
2023-02-12T19:19:43.999Z,10.04
2023-02-12T19:22:14.493Z,9.49
2023-02-12T19:24:46.921Z,9.85
2023-02-12T19:27:16.491Z,9.76
2023-02-12T19:29:47.307Z,10.07
2023-02-12T19:32:17.370Z,10.10
2023-02-12T19:34:47.397Z,10.15
2023-02-12T19:37:18.023Z,10.17
2023-02-12T19:39:46.209Z,10.10
2023-02-12T19:42:17.599Z,10.26
2023-02-12T19:44:47.518Z,10.25
2023-02-12T19:47:18.227Z,10.20
2023-02-12T19:49:50.599Z,10.11
2023-02-12T19:52:18.493Z,10.07
2023-02-12T19:54:47.269Z,9.99
2023-02-12T19:57:21.222Z,10.05
2023-02-12T19:59:53.390Z,9.93
2023-02-12T20:02:21.266Z,10.00
2023-02-12T20:04:50.767Z,9.90
2023-02-12T20:07:18.590Z,7.85
2023-02-12T20:09:46.441Z,9.28
2023-02-12T20:12:14.311Z,9.08
2023-02-12T20:14:44.726Z,9.50
2023-02-12T20:17:18.662Z,9.56
2023-02-12T20:19:51.225Z,9.54
2023-02-12T20:22:19.096Z,9.56
2023-02-12T20:24:47.049Z,9.42
2023-02-12T20:27:14.909Z,9.19
2023-02-12T20:29:44.808Z,9.19
2023-02-12T20:32:14.813Z,8.94
2023-02-12T20:34:51.497Z,8.73
2023-02-12T20:37:21.971Z,8.84
2023-02-12T20:39:49.746Z,8.83
2023-02-12T20:42:23.368Z,8.55
2023-02-12T20:45:01.855Z,8.68
2023-02-12T20:47:32.089Z,8.82
2023-02-12T20:50:02.695Z,8.69
2023-02-12T20:52:32.082Z,8.71
2023-02-12T20:55:01.157Z,8.55
2023-02-12T20:57:31.430Z,8.55
2023-02-12T20:59:59.266Z,8.77
2023-02-12T21:02:27.170Z,7.10
2023-02-12T21:04:56.201Z,8.81
2023-02-12T21:07:25.447Z,8.77
2023-02-12T21:09:54.364Z,8.75
2023-02-12T21:12:23.310Z,8.80
2023-02-12T21:14:51.081Z,8.95
2023-02-12T21:17:24.705Z,9.02
2023-02-12T21:19:54.552Z,9.10
2023-02-12T21:22:22.432Z,8.85
2023-02-12T21:25:01.760Z,8.87
2023-02-12T21:27:32.445Z,8.73
2023-02-12T21:30:00.296Z,8.77
2023-02-12T21:32:28.454Z,8.82
2023-02-12T21:34:56.453Z,8.74
2023-02-12T21:37:24.289Z,8.36
2023-02-12T21:39:53.516Z,8.22
2023-02-12T21:42:21.389Z,8.23
2023-02-12T21:44:49.268Z,8.16
2023-02-12T21:47:19.157Z,7.97
2023-02-12T21:49:46.952Z,8.20
2023-02-12T21:52:14.818Z,8.25
2023-02-12T21:54:42.669Z,8.23
2023-02-12T21:57:19.661Z,8.30
2023-02-12T21:59:50.209Z,8.32
2023-02-12T22:02:24.192Z,8.39
2023-02-12T22:04:58.210Z,8.33
2023-02-12T22:07:26.697Z,8.40
2023-02-12T22:10:00.982Z,8.13
2023-02-12T22:12:32.488Z,8.37
2023-02-12T22:15:00.372Z,8.16
2023-02-12T22:17:33.371Z,8.04
2023-02-12T22:20:01.527Z,7.97
2023-02-12T22:22:31.420Z,8.31
2023-02-12T22:24:59.329Z,8.42
2023-02-12T22:27:27.348Z,8.31
2023-02-12T22:29:56.596Z,8.37
2023-02-12T22:32:30.752Z,8.25
2023-02-12T22:35:00.769Z,8.42
2023-02-12T22:37:35.019Z,8.40
2023-02-12T22:40:02.811Z,7.67
2023-02-12T22:42:37.458Z,8.02
2023-02-12T22:45:07.930Z,8.12
2023-02-12T22:47:38.918Z,8.22
2023-02-12T22:50:10.878Z,8.32
2023-02-12T22:52:38.970Z,7.87
2023-02-12T22:55:12.299Z,8.30
2023-02-12T22:57:43.998Z,7.84
2023-02-12T23:00:28.558Z,8.12
2023-02-12T23:03:00.042Z,7.96
2023-02-12T23:05:30.381Z,7.82
2023-02-12T23:08:19.051Z,7.88
2023-02-12T23:10:47.404Z,7.88
2023-02-12T23:13:29.052Z,7.32
2023-02-12T23:15:59.786Z,7.53
2023-02-12T23:18:30.909Z,6.95
2023-02-12T23:21:01.989Z,7.67
2023-02-12T23:23:29.883Z,7.84
2023-02-12T23:25:57.774Z,7.65
2023-02-12T23:28:25.583Z,7.26
2023-02-12T23:30:53.687Z,7.84
2023-02-12T23:33:22.976Z,7.52
2023-02-12T23:35:50.918Z,7.43
2023-02-12T23:38:23.449Z,7.34
2023-02-12T23:40:52.165Z,7.24
2023-02-12T23:43:23.092Z,7.21
2023-02-12T23:45:53.698Z,7.61
2023-02-12T23:48:23.480Z,7.55
2023-02-12T23:50:56.950Z,7.62
2023-02-12T23:53:27.781Z,5.58
2023-02-12T23:55:58.276Z,7.45
2023-02-12T23:58:26.490Z,7.49
